createdAt,value
2023-09-09T00:03:33.294Z,14.67
2023-09-09T00:07:36.083Z,14.56
2023-09-09T00:11:39.469Z,14.31
2023-09-09T00:15:43.717Z,14.67
2023-09-09T00:19:46.568Z,14.75
2023-09-09T00:23:49.453Z,14.35
2023-09-09T00:27:52.271Z,14.58
2023-09-09T00:31:56.988Z,14.46
2023-09-09T00:36:01.436Z,14.72
2023-09-09T00:40:05.505Z,14.35
2023-09-09T00:44:09.647Z,14.11
2023-09-09T00:48:14.029Z,14.54
2023-09-09T00:52:16.770Z,14.30
2023-09-09T00:56:20.067Z,13.78
2023-09-09T01:00:23.584Z,13.82
2023-09-09T01:04:27.826Z,14.19
2023-09-09T01:08:31.571Z,14.38
2023-09-09T01:12:34.389Z,14.15
2023-09-09T01:16:37.296Z,14.12
2023-09-09T01:20:44.214Z,13.94
2023-09-09T01:24:48.417Z,14.10
2023-09-09T01:28:52.369Z,13.14
2023-09-09T01:32:55.230Z,14.02
2023-09-09T01:36:57.960Z,13.95
2023-09-09T01:41:02.215Z,13.93
2023-09-09T01:45:05.640Z,13.90
2023-09-09T01:49:08.435Z,13.64
2023-09-09T01:53:20.355Z,14.33
2023-09-09T01:57:27.929Z,13.00
2023-09-09T02:01:30.846Z,13.78
2023-09-09T02:05:33.982Z,14.02
2023-09-09T02:09:37.078Z,13.72
2023-09-09T02:13:41.397Z,13.58
2023-09-09T02:17:44.346Z,13.91
2023-09-09T02:21:47.107Z,13.48
2023-09-09T02:25:49.896Z,13.74
2023-09-09T02:29:54.212Z,13.59
2023-09-09T02:33:57.058Z,13.72
2023-09-09T02:37:59.788Z,13.59
2023-09-09T02:42:02.530Z,13.09
2023-09-09T02:46:06.734Z,13.55
2023-09-09T02:50:10.180Z,13.59
2023-09-09T02:54:14.531Z,13.61
2023-09-09T02:58:17.386Z,13.28
2023-09-09T03:02:21.650Z,12.37
2023-09-09T03:06:24.412Z,12.61
2023-09-09T03:10:27.472Z,12.89
2023-09-09T03:14:30.786Z,13.50
2023-09-09T03:18:34.820Z,13.09
2023-09-09T03:22:37.638Z,13.42
2023-09-09T03:26:40.482Z,13.55
2023-09-09T03:30:56.424Z,13.17
2023-09-09T03:35:00.826Z,13.33
2023-09-09T03:39:04.554Z,13.21
2023-09-09T03:43:07.459Z,12.92
2023-09-09T03:47:10.246Z,12.88
2023-09-09T03:51:14.661Z,12.79
2023-09-09T03:55:19.054Z,13.11
2023-09-09T03:59:21.807Z,12.88
2023-09-09T04:03:24.690Z,13.04
2023-09-09T04:07:29.018Z,12.77
2023-09-09T04:11:31.788Z,13.07
2023-09-09T04:15:34.543Z,12.85
2023-09-09T04:19:44.348Z,12.84
2023-09-09T04:23:49.014Z,12.16
2023-09-09T04:27:51.849Z,12.69
2023-09-09T04:31:55.156Z,12.68
2023-09-09T04:35:57.823Z,12.72
2023-09-09T04:40:01.993Z,12.82
2023-09-09T04:44:05.006Z,12.36
2023-09-09T04:48:08.373Z,12.53
2023-09-09T04:52:10.924Z,12.64
2023-09-09T04:56:15.132Z,12.35
2023-09-09T05:00:18.215Z,12.29
2023-09-09T05:04:20.965Z,12.80
2023-09-09T05:08:23.812Z,12.56
2023-09-09T05:12:27.918Z,12.58
2023-09-09T05:16:58.199Z,12.52
2023-09-09T05:21:13.614Z,12.88
2023-09-09T05:25:18.533Z,12.07
2023-09-09T05:29:26.472Z,12.76
2023-09-09T05:33:29.314Z,12.85
2023-09-09T05:37:33.213Z,12.77
2023-09-09T05:41:36.338Z,13.03
2023-09-09T05:45:40.582Z,12.44
2023-09-09T05:49:43.989Z,13.01
2023-09-09T05:53:46.640Z,13.39
2023-09-09T05:57:49.663Z,13.32
2023-09-09T06:01:53.857Z,13.19
2023-09-09T06:05:57.930Z,13.61
2023-09-09T06:10:01.405Z,13.90
2023-09-09T06:14:04.202Z,13.63
2023-09-09T06:18:08.528Z,13.71
2023-09-09T06:22:11.378Z,14.19
2023-09-09T06:26:14.218Z,14.28
2023-09-09T06:30:22.196Z,16.14
2023-09-09T06:34:28.569Z,15.76
2023-09-09T06:38:31.781Z,16.16
2023-09-09T06:42:34.354Z,15.92
2023-09-09T06:46:37.417Z,18.25
2023-09-09T06:50:41.962Z,18.47
2023-09-09T06:54:45.197Z,17.71
2023-09-09T06:58:47.940Z,18.09
2023-09-09T07:03:02.348Z,17.96
2023-09-09T07:07:13.283Z,17.73
2023-09-09T07:11:17.649Z,17.43
2023-09-09T07:15:20.695Z,17.81
2023-09-09T07:19:23.715Z,17.67
2023-09-09T07:23:28.734Z,17.34
2023-09-09T07:27:31.457Z,17.75
2023-09-09T07:31:34.225Z,17.64
2023-09-09T07:35:37.758Z,17.70
2023-09-09T07:39:52.469Z,18.06
2023-09-09T07:43:55.398Z,18.52
2023-09-09T07:47:58.558Z,18.64
2023-09-09T07:52:01.416Z,18.27
2023-09-09T07:56:06.034Z,18.74
2023-09-09T08:00:10.056Z,19.23
2023-09-09T08:04:13.111Z,19.45
2023-09-09T08:08:15.891Z,19.74
2023-09-09T08:12:23.602Z,19.79
2023-09-09T08:16:26.473Z,20.49
2023-09-09T08:20:31.471Z,20.31
2023-09-09T08:24:35.321Z,20.29
2023-09-09T08:28:41.023Z,20.72
2023-09-09T08:32:43.813Z,20.85
2023-09-09T08:36:46.822Z,20.93
2023-09-09T08:40:57.461Z,21.29
2023-09-09T08:45:07.230Z,21.42
2023-09-09T08:49:14.670Z,21.74
2023-09-09T08:53:25.569Z,21.66
2023-09-09T08:57:29.667Z,22.18
2023-09-09T09:01:34.237Z,22.46
2023-09-09T09:05:37.965Z,22.56
2023-09-09T09:09:40.794Z,22.76
2023-09-09T09:13:43.798Z,22.94
2023-09-09T09:17:48.193Z,23.21
2023-09-09T09:21:52.168Z,23.63
2023-09-09T09:25:55.673Z,24.00
2023-09-09T09:30:05.010Z,23.86
2023-09-09T09:34:10.602Z,24.30
2023-09-09T09:38:13.762Z,24.20
2023-09-09T09:42:21.080Z,24.03
2023-09-09T09:46:24.557Z,24.47
2023-09-09T09:50:32.156Z,25.43
2023-09-09T09:54:35.771Z,25.87
2023-09-09T09:58:39.240Z,25.50
2023-09-09T10:02:43.176Z,25.39
2023-09-09T10:06:50.071Z,25.10
2023-09-09T10:10:59.083Z,26.05
2023-09-09T10:15:09.489Z,25.90
2023-09-09T10:19:14.488Z,25.94
2023-09-09T10:23:19.228Z,26.33
2023-09-09T10:27:23.940Z,26.09
2023-09-09T10:31:27.361Z,26.20
2023-09-09T10:35:32.360Z,26.23
2023-09-09T10:39:36.698Z,26.97
2023-09-09T10:43:39.642Z,26.36
2023-09-09T10:47:52.852Z,26.93
2023-09-09T10:51:55.859Z,26.84
2023-09-09T10:56:00.983Z,27.01
2023-09-09T11:00:06.893Z,27.61
2023-09-09T11:04:22.588Z,27.57
2023-09-09T11:08:37.456Z,26.99
2023-09-09T11:12:50.951Z,27.56
2023-09-09T11:16:56.417Z,27.94
2023-09-09T11:20:59.980Z,27.45
2023-09-09T11:25:04.186Z,27.27
2023-09-09T11:29:14.765Z,27.81
2023-09-09T11:33:27.226Z,27.39
2023-09-09T11:37:30.583Z,28.09
2023-09-09T11:41:36.900Z,27.81
2023-09-09T11:45:41.056Z,26.96
2023-09-09T11:49:44.426Z,27.53
2023-09-09T11:53:48.642Z,28.42
2023-09-09T11:58:00.564Z,27.99
2023-09-09T12:02:05.018Z,28.28
2023-09-09T12:06:10.241Z,28.68
2023-09-09T12:10:15.965Z,27.45
2023-09-09T12:14:19.106Z,27.12
2023-09-09T12:18:23.373Z,27.95
2023-09-09T12:22:33.757Z,28.44
2023-09-09T12:26:38.619Z,28.48
2023-09-09T12:30:43.019Z,27.66
2023-09-09T12:34:47.159Z,28.08
2023-09-09T12:38:52.197Z,28.80
2023-09-09T12:42:58.515Z,28.32
2023-09-09T12:47:06.581Z,28.32
2023-09-09T12:51:16.667Z,28.04
2023-09-09T12:55:19.459Z,28.51
2023-09-09T12:59:22.372Z,28.10
2023-09-09T13:03:25.260Z,28.08
2023-09-09T13:07:33.644Z,28.13
2023-09-09T13:11:37.429Z,29.09
2023-09-09T13:15:40.229Z,28.20
2023-09-09T13:19:43.032Z,27.41
2023-09-09T13:23:47.451Z,28.64
2023-09-09T13:27:50.594Z,28.95
2023-09-09T13:31:53.713Z,28.25
2023-09-09T13:35:56.585Z,28.19
2023-09-09T13:40:01.957Z,27.85
2023-09-09T13:44:05.384Z,27.83
2023-09-09T13:48:08.455Z,28.03
2023-09-09T13:52:12.556Z,28.09
2023-09-09T13:56:16.793Z,28.39
2023-09-09T14:00:25.915Z,28.87
2023-09-09T14:04:28.738Z,28.83
2023-09-09T14:08:31.453Z,28.46
2023-09-09T14:12:37.537Z,28.04
2023-09-09T14:16:41.081Z,27.92
2023-09-09T14:20:58.481Z,28.43
2023-09-09T14:25:01.218Z,28.80
2023-09-09T14:29:06.225Z,27.89
2023-09-09T14:33:09.019Z,27.78
2023-09-09T14:37:12.107Z,27.75
2023-09-09T14:41:15.326Z,28.64
2023-09-09T14:45:20.056Z,28.54
2023-09-09T14:49:22.924Z,28.44
2023-09-09T14:53:25.617Z,28.02
2023-09-09T14:57:28.397Z,27.25
2023-09-09T15:01:32.940Z,27.63
2023-09-09T15:05:35.795Z,27.12
2023-09-09T15:09:38.717Z,27.27
2023-09-09T15:13:41.434Z,26.43
2023-09-09T15:17:47.289Z,26.95
2023-09-09T15:21:52.676Z,27.45
2023-09-09T15:25:55.508Z,26.74
2023-09-09T15:29:58.360Z,27.36
2023-09-09T15:34:02.549Z,27.24
2023-09-09T15:38:05.639Z,26.47
2023-09-09T15:42:08.869Z,26.63
2023-09-09T15:46:11.686Z,26.53
2023-09-09T15:50:15.961Z,27.06
2023-09-09T15:54:18.760Z,27.28
2023-09-09T15:58:29.394Z,26.18
2023-09-09T16:02:32.348Z,26.74
2023-09-09T16:06:36.713Z,26.01
2023-09-09T16:10:40.188Z,26.64
2023-09-09T16:14:43.978Z,25.67
2023-09-09T16:18:46.690Z,25.99
2023-09-09T16:22:50.826Z,25.71
2023-09-09T16:26:53.618Z,25.77
2023-09-09T16:30:56.604Z,25.42
2023-09-09T16:35:00.314Z,25.04
2023-09-09T16:39:12.368Z,24.31
2023-09-09T16:43:15.575Z,24.62
2023-09-09T16:47:18.330Z,24.35
2023-09-09T16:51:21.095Z,24.04
2023-09-09T16:55:25.339Z,24.25
2023-09-09T16:59:36.210Z,24.02
2023-09-09T17:03:39.653Z,23.69
2023-09-09T17:07:48.557Z,23.48
2023-09-09T17:11:52.880Z,23.51
2023-09-09T17:15:59.988Z,23.09
2023-09-09T17:20:04.722Z,22.76
2023-09-09T17:24:08.560Z,22.79
2023-09-09T17:28:13.362Z,21.99
2023-09-09T17:32:16.226Z,21.59
2023-09-09T17:36:19.126Z,21.82
2023-09-09T17:40:22.092Z,22.07
2023-09-09T17:44:32.515Z,21.84
2023-09-09T17:48:35.918Z,21.66
2023-09-09T17:52:43.251Z,21.62
2023-09-09T17:56:46.165Z,21.36
2023-09-09T18:00:50.347Z,21.09
2023-09-09T18:04:54.125Z,20.20
2023-09-09T18:08:57.015Z,20.43
2023-09-09T18:13:03.845Z,20.78
2023-09-09T18:17:09.419Z,20.48
2023-09-09T18:21:13.064Z,19.78
2023-09-09T18:25:17.573Z,20.41
2023-09-09T18:29:20.381Z,20.65
2023-09-09T18:33:27.139Z,20.45
2023-09-09T18:37:30.954Z,19.57
2023-09-09T18:41:33.686Z,19.85
2023-09-09T18:45:36.654Z,20.25
2023-09-09T18:49:40.862Z,19.24
2023-09-09T18:53:43.732Z,19.47
2023-09-09T18:57:46.311Z,19.63
2023-09-09T19:01:52.576Z,19.20
2023-09-09T19:05:57.871Z,19.28
2023-09-09T19:10:00.961Z,19.37
2023-09-09T19:14:04.044Z,19.52
2023-09-09T19:18:07.141Z,18.25
2023-09-09T19:22:13.011Z,18.98
2023-09-09T19:26:15.937Z,19.21
2023-09-09T19:30:18.691Z,19.13
2023-09-09T19:34:21.661Z,18.94
2023-09-09T19:38:25.743Z,18.93
2023-09-09T19:42:30.597Z,18.84
2023-09-09T19:46:33.390Z,18.50
2023-09-09T19:50:38.251Z,18.63
2023-09-09T19:54:42.536Z,18.54
2023-09-09T19:58:45.300Z,18.68
2023-09-09T20:02:56.480Z,18.46
2023-09-09T20:06:59.759Z,18.16
2023-09-09T20:11:06.447Z,18.87
2023-09-09T20:15:10.169Z,18.29
2023-09-09T20:19:13.341Z,18.17
2023-09-09T20:23:16.471Z,18.05
2023-09-09T20:27:31.066Z,18.01
2023-09-09T20:31:36.157Z,17.98
2023-09-09T20:35:40.518Z,18.14
2023-09-09T20:39:44.121Z,17.90
2023-09-09T20:43:48.457Z,17.40
2023-09-09T20:47:51.837Z,17.31
2023-09-09T20:51:55.088Z,17.43
2023-09-09T20:55:57.893Z,17.85
2023-09-09T21:00:02.863Z,17.37
2023-09-09T21:04:06.069Z,17.49
2023-09-09T21:08:09.122Z,17.63
2023-09-09T21:12:14.559Z,17.05
2023-09-09T21:16:18.712Z,17.47
2023-09-09T21:20:24.086Z,17.55
2023-09-09T21:24:26.893Z,16.83
2023-09-09T21:28:29.686Z,17.83
2023-09-09T21:32:34.027Z,16.42
2023-09-09T21:36:36.891Z,17.43
2023-09-09T21:40:39.832Z,16.95
2023-09-09T21:44:45.106Z,17.33
2023-09-09T21:48:50.400Z,17.47
2023-09-09T21:52:53.294Z,17.17
2023-09-09T21:56:56.162Z,17.51
2023-09-09T22:00:59.086Z,17.27
2023-09-09T22:05:03.438Z,16.76
2023-09-09T22:09:06.406Z,16.90
2023-09-09T22:13:09.301Z,16.71
2023-09-09T22:17:12.424Z,16.78
2023-09-09T22:21:16.851Z,16.06
2023-09-09T22:25:19.746Z,16.36
2023-09-09T22:29:22.499Z,16.45
2023-09-09T22:33:25.308Z,16.13
2023-09-09T22:37:30.000Z,15.89
2023-09-09T22:41:32.780Z,16.62
2023-09-09T22:45:37.125Z,17.09
2023-09-09T22:49:41.661Z,16.43
2023-09-09T22:53:45.828Z,15.87
2023-09-09T22:57:48.563Z,16.63
2023-09-09T23:01:51.438Z,16.48
2023-09-09T23:05:54.395Z,16.47
2023-09-09T23:09:58.605Z,16.33
2023-09-09T23:14:01.345Z,15.94
2023-09-09T23:18:04.296Z,16.43
2023-09-09T23:22:07.194Z,16.31
2023-09-09T23:26:11.342Z,16.42
2023-09-09T23:30:14.784Z,16.10
2023-09-09T23:34:17.816Z,16.27
2023-09-09T23:38:20.551Z,15.48
2023-09-09T23:42:24.751Z,15.24
2023-09-09T23:46:27.620Z,15.56
2023-09-09T23:50:30.344Z,15.77
2023-09-09T23:54:33.114Z,15.56
2023-09-09T23:58:38.242Z,15.80
